createdAt,value
2023-03-31T00:00:53.591Z,69.71
2023-03-31T00:03:22.007Z,69.78
2023-03-31T00:05:54.519Z,69.87
2023-03-31T00:08:22.465Z,69.92
2023-03-31T00:10:50.556Z,69.99
2023-03-31T00:13:18.502Z,69.99
2023-03-31T00:15:46.460Z,69.93
2023-03-31T00:18:14.418Z,69.88
2023-03-31T00:20:42.311Z,69.94
2023-03-31T00:23:14.010Z,70.00
2023-03-31T00:25:44.722Z,69.93
2023-03-31T00:28:12.611Z,70.06
2023-03-31T00:30:40.598Z,69.96
2023-03-31T00:33:09.022Z,70.05
2023-03-31T00:35:38.732Z,69.88
2023-03-31T00:38:08.370Z,69.94
2023-03-31T00:40:36.359Z,69.78
2023-03-31T00:43:10.488Z,69.73
2023-03-31T00:45:39.753Z,69.76
2023-03-31T00:48:14.783Z,69.78
2023-03-31T00:50:50.330Z,69.86
2023-03-31T00:53:22.338Z,69.78
2023-03-31T00:55:54.351Z,69.65
2023-03-31T00:58:27.486Z,69.65
2023-03-31T01:00:57.578Z,69.73
2023-03-31T01:03:26.017Z,69.68
2023-03-31T01:05:59.721Z,69.62
2023-03-31T01:08:28.805Z,69.69
2023-03-31T01:11:00.201Z,69.59
2023-03-31T01:13:29.870Z,69.76
2023-03-31T01:15:57.817Z,69.64
2023-03-31T01:18:29.137Z,69.61
2023-03-31T01:21:32.765Z,69.48
2023-03-31T01:24:37.378Z,69.42
2023-03-31T01:27:30.868Z,69.36
2023-03-31T01:30:25.010Z,69.51
2023-03-31T01:33:20.064Z,69.38
2023-03-31T01:36:20.580Z,69.24
2023-03-31T01:39:15.702Z,69.38
2023-03-31T01:41:53.562Z,69.36
2023-03-31T01:44:31.713Z,69.48
2023-03-31T01:47:05.342Z,69.31
2023-03-31T01:49:45.251Z,69.35
2023-03-31T01:52:22.333Z,69.38
2023-03-31T01:55:00.560Z,69.30
2023-03-31T01:57:32.643Z,69.49
2023-03-31T02:00:05.258Z,69.28
2023-03-31T02:02:46.620Z,69.36
2023-03-31T02:05:18.549Z,69.27
2023-03-31T02:07:51.120Z,69.30
2023-03-31T02:10:22.236Z,69.50
2023-03-31T02:12:51.736Z,69.42
2023-03-31T02:15:26.925Z,69.47
2023-03-31T02:17:57.493Z,69.32
2023-03-31T02:20:27.884Z,69.46
2023-03-31T02:22:57.509Z,69.46
2023-03-31T02:25:33.288Z,69.43
2023-03-31T02:28:07.483Z,69.44
2023-03-31T02:30:43.253Z,69.56
2023-03-31T02:33:11.336Z,69.46
2023-03-31T02:35:39.443Z,69.64
2023-03-31T02:38:08.335Z,69.50
2023-03-31T02:40:37.366Z,69.47
2023-03-31T02:43:05.475Z,69.45
2023-03-31T02:45:42.972Z,69.44
2023-03-31T02:48:15.790Z,69.42
2023-03-31T02:51:01.663Z,69.63
2023-03-31T02:53:43.510Z,69.52
2023-03-31T02:56:28.319Z,69.61
2023-03-31T02:59:10.992Z,69.53
2023-03-31T03:01:49.167Z,69.51
2023-03-31T03:04:33.560Z,69.53
2023-03-31T03:07:09.444Z,69.70
2023-03-31T03:09:47.525Z,69.72
2023-03-31T03:12:22.411Z,69.60
2023-03-31T03:14:57.869Z,69.43
2023-03-31T03:17:29.990Z,69.58
2023-03-31T03:20:01.473Z,69.48
2023-03-31T03:22:29.414Z,69.48
2023-03-31T03:24:57.348Z,69.53
2023-03-31T03:27:25.292Z,69.57
2023-03-31T03:29:53.279Z,69.64
2023-03-31T03:32:21.185Z,69.66
2023-03-31T03:34:49.142Z,69.51
2023-03-31T03:37:17.090Z,69.61
2023-03-31T03:39:45.027Z,69.52
2023-03-31T03:42:12.973Z,69.47
2023-03-31T03:44:40.916Z,69.57
2023-03-31T03:47:08.852Z,69.53
2023-03-31T03:49:36.803Z,69.53
2023-03-31T03:52:05.327Z,69.46
2023-03-31T03:54:33.360Z,69.49
2023-03-31T03:57:01.506Z,69.45
2023-03-31T03:59:29.501Z,69.31
2023-03-31T04:01:57.535Z,69.37
2023-03-31T04:04:25.653Z,69.39
2023-03-31T04:06:55.285Z,69.43
2023-03-31T04:09:24.296Z,69.41
2023-03-31T04:11:52.423Z,69.38
2023-03-31T04:14:20.936Z,69.31
2023-03-31T04:16:49.248Z,69.44
2023-03-31T04:19:17.893Z,69.42
2023-03-31T04:21:50.969Z,69.47
2023-03-31T04:24:21.611Z,69.30
2023-03-31T04:26:50.358Z,69.42
2023-03-31T04:29:20.009Z,69.35
2023-03-31T04:31:52.129Z,69.36
2023-03-31T04:34:21.584Z,69.31
2023-03-31T04:36:49.706Z,69.33
2023-03-31T04:39:26.095Z,69.30
2023-03-31T04:41:54.415Z,69.45
2023-03-31T04:44:25.450Z,69.71
2023-03-31T04:46:53.957Z,69.72
2023-03-31T04:49:22.063Z,69.75
2023-03-31T04:51:50.283Z,69.77
2023-03-31T04:54:18.815Z,69.76
2023-03-31T04:56:47.124Z,69.71
2023-03-31T04:59:15.659Z,69.69
2023-03-31T05:01:45.330Z,69.76
2023-03-31T05:04:14.371Z,69.64
2023-03-31T05:06:42.749Z,69.66
2023-03-31T05:09:10.900Z,69.70
2023-03-31T05:11:39.267Z,69.77
2023-03-31T05:14:08.578Z,69.76
2023-03-31T05:16:37.426Z,69.97
2023-03-31T05:19:06.448Z,69.87
2023-03-31T05:21:35.056Z,69.96
2023-03-31T05:24:04.169Z,69.94
2023-03-31T05:26:32.117Z,70.12
2023-03-31T05:29:00.069Z,70.04
2023-03-31T05:31:28.176Z,69.93
2023-03-31T05:33:56.132Z,69.95
2023-03-31T05:36:38.303Z,70.11
2023-03-31T05:39:10.117Z,70.21
2023-03-31T05:41:38.418Z,70.16
2023-03-31T05:44:06.739Z,70.12
2023-03-31T05:46:34.903Z,70.22
2023-03-31T05:49:03.385Z,70.18
2023-03-31T05:51:31.503Z,70.30
2023-03-31T05:53:59.885Z,70.53
2023-03-31T05:56:28.285Z,70.47
2023-03-31T05:58:57.591Z,70.08
2023-03-31T06:01:25.877Z,69.73
2023-03-31T06:03:54.201Z,69.45
2023-03-31T06:06:22.946Z,69.37
2023-03-31T06:08:51.208Z,69.25
2023-03-31T06:11:21.255Z,69.17
2023-03-31T06:13:52.248Z,69.26
2023-03-31T06:16:20.225Z,69.37
2023-03-31T06:18:52.954Z,69.17
2023-03-31T06:21:25.252Z,69.32
2023-03-31T06:23:55.550Z,69.50
2023-03-31T06:26:23.785Z,69.63
2023-03-31T06:28:52.496Z,69.55
2023-03-31T06:31:23.631Z,69.32
2023-03-31T06:36:35.697Z,69.12
2023-03-31T06:39:03.969Z,68.79
2023-03-31T06:41:32.001Z,68.56
2023-03-31T06:44:23.973Z,68.60
2023-03-31T06:46:52.604Z,68.64
2023-03-31T06:49:21.071Z,68.64
2023-03-31T06:51:49.010Z,68.76
2023-03-31T06:54:16.977Z,68.53
2023-03-31T06:56:55.028Z,68.40
2023-03-31T06:59:25.813Z,68.38
2023-03-31T07:01:53.911Z,68.59
2023-03-31T07:04:22.074Z,68.66
2023-03-31T07:06:50.722Z,68.54
2023-03-31T07:09:22.702Z,68.19
2023-03-31T07:11:50.841Z,67.80
2023-03-31T07:14:22.455Z,67.33
2023-03-31T07:16:50.711Z,67.58
2023-03-31T07:19:19.152Z,67.59
2023-03-31T07:21:53.277Z,67.56
2023-03-31T07:24:21.659Z,67.66
2023-03-31T07:26:49.716Z,67.36
2023-03-31T07:29:17.961Z,66.90
2023-03-31T07:31:47.559Z,66.48
2023-03-31T07:34:15.776Z,66.12
2023-03-31T07:36:43.857Z,65.95
2023-03-31T07:39:11.835Z,65.62
2023-03-31T07:41:40.163Z,65.17
2023-03-31T07:44:09.411Z,65.08
2023-03-31T07:46:37.474Z,64.78
2023-03-31T07:49:06.833Z,64.93
2023-03-31T07:51:35.509Z,64.68
2023-03-31T07:54:03.637Z,64.54
2023-03-31T07:56:31.809Z,64.65
2023-03-31T07:59:02.354Z,64.48
2023-03-31T08:01:31.855Z,64.11
2023-03-31T08:04:00.585Z,63.82
2023-03-31T08:06:29.355Z,63.75
2023-03-31T08:08:58.662Z,63.51
2023-03-31T08:11:27.199Z,63.05
2023-03-31T08:13:55.868Z,62.79
2023-03-31T08:16:24.062Z,62.74
2023-03-31T08:18:52.650Z,62.55
2023-03-31T08:21:23.765Z,62.25
2023-03-31T08:23:55.044Z,61.99
2023-03-31T08:26:24.904Z,61.91
2023-03-31T08:29:03.521Z,61.55
2023-03-31T08:31:31.598Z,61.29
2023-03-31T08:34:04.432Z,61.00
2023-03-31T08:36:37.853Z,61.27
2023-03-31T08:39:06.864Z,61.44
2023-03-31T08:41:44.354Z,61.63
2023-03-31T08:44:21.148Z,62.09
2023-03-31T08:46:52.328Z,62.73
2023-03-31T08:49:22.930Z,62.99
2023-03-31T08:51:55.803Z,62.99
2023-03-31T08:54:33.538Z,62.95
2023-03-31T08:57:06.064Z,62.72
2023-03-31T08:59:38.463Z,62.33
2023-03-31T09:02:19.157Z,62.74
2023-03-31T09:05:22.524Z,63.15
2023-03-31T09:07:59.555Z,63.10
2023-03-31T09:10:51.754Z,62.67
2023-03-31T09:13:35.777Z,62.34
2023-03-31T09:16:09.637Z,61.82
2023-03-31T09:18:40.078Z,61.20
2023-03-31T09:21:17.954Z,60.46
2023-03-31T09:23:49.677Z,60.37
2023-03-31T09:26:25.952Z,60.38
2023-03-31T09:28:57.785Z,60.49
2023-03-31T09:31:27.016Z,60.01
2023-03-31T09:33:59.363Z,60.11
2023-03-31T09:36:28.098Z,59.78
2023-03-31T09:38:56.285Z,59.79
2023-03-31T09:41:25.421Z,59.77
2023-03-31T09:43:53.654Z,59.25
2023-03-31T09:46:29.810Z,59.21
2023-03-31T09:49:06.885Z,59.07
2023-03-31T09:51:38.351Z,58.47
2023-03-31T09:54:21.482Z,58.32
2023-03-31T09:56:53.504Z,58.05
2023-03-31T09:59:23.978Z,57.89
2023-03-31T10:01:56.383Z,57.68
2023-03-31T10:04:28.008Z,57.39
2023-03-31T10:06:57.965Z,57.53
2023-03-31T10:09:29.930Z,57.44
2023-03-31T10:12:00.134Z,57.46
2023-03-31T10:14:42.180Z,57.40
2023-03-31T10:17:15.734Z,56.79
2023-03-31T10:19:50.785Z,56.65
2023-03-31T10:22:26.722Z,56.50
2023-03-31T10:25:00.393Z,56.16
2023-03-31T10:27:31.370Z,55.63
2023-03-31T10:30:01.098Z,55.45
2023-03-31T10:32:32.653Z,55.17
2023-03-31T10:35:13.664Z,54.74
2023-03-31T10:37:55.717Z,54.70
2023-03-31T10:40:25.539Z,54.69
2023-03-31T10:43:03.297Z,54.13
2023-03-31T10:45:38.382Z,53.78
2023-03-31T10:48:17.493Z,53.29
2023-03-31T10:50:45.850Z,53.25
2023-03-31T10:53:15.880Z,52.88
2023-03-31T10:55:52.752Z,52.73
2023-03-31T10:58:36.892Z,52.41
2023-03-31T11:01:18.638Z,52.49
2023-03-31T11:04:18.914Z,52.78
2023-03-31T11:06:56.868Z,53.22
2023-03-31T11:09:40.643Z,52.85
2023-03-31T11:12:18.624Z,52.56
2023-03-31T11:15:01.699Z,52.40
2023-03-31T11:17:41.650Z,52.24
2023-03-31T11:20:21.663Z,52.20
2023-03-31T11:23:00.247Z,52.19
2023-03-31T11:25:38.695Z,52.05
2023-03-31T11:28:24.461Z,52.11
2023-03-31T11:31:06.538Z,52.24
2023-03-31T11:34:11.284Z,52.32
2023-03-31T11:37:03.677Z,52.22
2023-03-31T11:43:27.894Z,51.94
2023-03-31T11:46:09.901Z,51.94
2023-03-31T11:48:44.198Z,51.70
2023-03-31T11:51:19.341Z,51.47
2023-03-31T11:53:48.614Z,51.25
2023-03-31T11:56:17.615Z,51.19
2023-03-31T11:58:49.289Z,51.28
2023-03-31T12:01:26.044Z,51.28
2023-03-31T12:04:05.408Z,51.07
2023-03-31T12:06:39.706Z,51.04
2023-03-31T12:09:17.121Z,50.91
2023-03-31T12:11:52.186Z,50.63
2023-03-31T12:14:25.036Z,50.32
2023-03-31T12:16:55.564Z,50.39
2023-03-31T12:19:28.635Z,50.79
2023-03-31T12:22:04.195Z,51.01
2023-03-31T12:24:33.700Z,51.04
2023-03-31T12:27:11.613Z,50.91
2023-03-31T12:29:45.520Z,50.66
2023-03-31T12:32:17.989Z,50.54
2023-03-31T12:34:51.489Z,50.53
2023-03-31T12:37:50.325Z,50.62
2023-03-31T12:40:30.098Z,50.62
2023-03-31T12:43:36.928Z,50.12
2023-03-31T12:46:18.716Z,50.07
2023-03-31T12:49:01.662Z,50.00
2023-03-31T12:51:46.151Z,49.84
2023-03-31T12:54:27.689Z,49.89
2023-03-31T12:57:21.592Z,49.64
2023-03-31T13:00:20.287Z,49.56
2023-03-31T13:02:49.613Z,49.71
2023-03-31T13:05:49.693Z,49.79
2023-03-31T13:08:52.773Z,49.96
2023-03-31T13:11:23.703Z,49.92
2023-03-31T13:14:01.778Z,49.76
2023-03-31T13:16:31.017Z,49.66
2023-03-31T13:18:59.684Z,49.53
2023-03-31T13:21:28.299Z,49.37
2023-03-31T13:24:01.075Z,49.16
2023-03-31T13:26:45.841Z,49.19
2023-03-31T13:29:25.637Z,49.22
2023-03-31T13:32:20.241Z,49.04
2023-03-31T13:34:53.582Z,48.68
2023-03-31T13:37:44.290Z,48.64
2023-03-31T13:40:30.635Z,48.67
2023-03-31T13:43:27.693Z,48.98
2023-03-31T13:46:09.777Z,48.86
2023-03-31T13:48:43.840Z,48.90
2023-03-31T13:51:24.672Z,48.98
2023-03-31T13:54:26.705Z,49.35
2023-03-31T13:57:24.412Z,49.29
2023-03-31T14:00:21.179Z,49.65
2023-03-31T14:03:13.310Z,49.52
2023-03-31T14:05:45.272Z,49.65
2023-03-31T14:08:19.993Z,49.65
2023-03-31T14:10:54.234Z,49.24
2023-03-31T14:13:25.200Z,49.22
2023-03-31T14:15:57.135Z,49.13
2023-03-31T14:19:03.356Z,49.13
2023-03-31T14:24:50.312Z,49.52
2023-03-31T14:27:30.293Z,49.43
2023-03-31T14:30:06.290Z,49.40
2023-03-31T14:32:42.975Z,49.58
2023-03-31T14:35:28.231Z,49.55
2023-03-31T14:37:57.292Z,49.54
2023-03-31T14:40:25.828Z,49.63
2023-03-31T14:42:53.887Z,49.82
2023-03-31T14:45:24.567Z,49.92
2023-03-31T14:47:57.773Z,50.00
2023-03-31T14:50:33.320Z,49.91
2023-03-31T14:53:01.764Z,49.89
2023-03-31T14:55:49.771Z,49.87
2023-03-31T14:58:27.003Z,50.23
2023-03-31T15:00:55.718Z,50.28
2023-03-31T15:03:26.847Z,50.30
2023-03-31T15:05:58.568Z,50.45
2023-03-31T15:08:30.040Z,50.53
2023-03-31T15:11:11.965Z,50.54
2023-03-31T15:13:56.761Z,50.58
2023-03-31T15:16:41.369Z,50.46
2023-03-31T15:19:15.651Z,50.23
2023-03-31T15:21:45.634Z,50.26
2023-03-31T15:24:14.857Z,50.30
2023-03-31T15:26:50.052Z,50.31
2023-03-31T15:29:20.430Z,50.46
2023-03-31T15:31:49.566Z,50.32
2023-03-31T15:34:27.364Z,50.12
2023-03-31T15:36:57.234Z,49.99
2023-03-31T15:39:28.330Z,49.86
2023-03-31T15:42:04.668Z,49.83
2023-03-31T15:44:44.396Z,50.32
2023-03-31T15:47:19.838Z,50.76
2023-03-31T15:49:54.272Z,51.25
2023-03-31T15:52:54.118Z,51.76
2023-03-31T15:58:15.852Z,52.33
2023-03-31T16:00:47.613Z,52.81
2023-03-31T16:03:24.150Z,53.23
2023-03-31T16:05:56.491Z,53.70
2023-03-31T16:08:30.860Z,54.07
2023-03-31T16:11:05.819Z,54.14
2023-03-31T16:16:14.322Z,54.62
2023-03-31T16:18:46.491Z,54.60
2023-03-31T16:21:20.448Z,54.78
2023-03-31T16:23:52.886Z,54.72
2023-03-31T16:26:22.972Z,54.86
2023-03-31T16:28:53.764Z,55.11
2023-03-31T16:31:34.808Z,55.16
2023-03-31T16:34:05.141Z,55.28
2023-03-31T16:36:33.528Z,55.28
2023-03-31T16:39:04.528Z,55.36
2023-03-31T16:41:33.900Z,55.50
2023-03-31T16:44:05.699Z,55.56
2023-03-31T16:46:33.850Z,55.60
2023-03-31T16:49:01.926Z,55.77
2023-03-31T16:51:29.915Z,55.89
2023-03-31T16:53:59.397Z,55.83
2023-03-31T16:56:27.646Z,56.07
2023-03-31T16:58:55.686Z,56.23
2023-03-31T17:01:23.744Z,56.49
2023-03-31T17:03:51.932Z,56.66
2023-03-31T17:06:20.071Z,56.65
2023-03-31T17:09:02.974Z,56.76
2023-03-31T17:11:33.762Z,56.90
2023-03-31T17:14:04.660Z,56.91
2023-03-31T17:16:45.007Z,56.94
2023-03-31T17:19:20.051Z,56.95
2023-03-31T17:21:48.786Z,56.93
2023-03-31T17:24:16.860Z,56.90
2023-03-31T17:26:45.085Z,57.02
2023-03-31T17:29:16.864Z,56.96
2023-03-31T17:31:44.962Z,57.00
2023-03-31T17:34:14.863Z,57.16
2023-03-31T17:36:50.197Z,57.18
2023-03-31T17:39:18.221Z,57.29
2023-03-31T17:41:46.141Z,57.34
2023-03-31T17:44:14.925Z,57.62
2023-03-31T17:46:43.324Z,57.76
2023-03-31T17:49:11.330Z,58.15
2023-03-31T17:51:40.043Z,58.37
2023-03-31T17:54:07.991Z,58.51
2023-03-31T17:56:36.138Z,58.75
2023-03-31T17:59:04.832Z,58.85
2023-03-31T18:01:34.771Z,59.15
2023-03-31T18:04:06.850Z,59.32
2023-03-31T18:06:35.229Z,59.40
2023-03-31T18:09:05.460Z,59.93
2023-03-31T18:11:40.970Z,60.24
2023-03-31T18:14:09.372Z,60.62
2023-03-31T18:16:38.133Z,60.88
2023-03-31T18:19:06.772Z,61.12
2023-03-31T18:21:44.899Z,61.31
2023-03-31T18:24:16.322Z,61.38
2023-03-31T18:26:47.765Z,61.59
2023-03-31T18:29:18.110Z,61.84
2023-03-31T18:31:48.227Z,61.97
2023-03-31T18:34:41.249Z,62.17
2023-03-31T18:37:10.171Z,62.28
2023-03-31T18:39:38.642Z,62.51
2023-03-31T18:42:07.274Z,62.78
2023-03-31T18:44:35.936Z,62.85
2023-03-31T18:47:04.517Z,63.00
2023-03-31T18:49:33.169Z,63.12
2023-03-31T18:52:03.645Z,63.29
2023-03-31T18:54:31.629Z,63.48
2023-03-31T18:57:01.144Z,63.74
2023-03-31T18:59:29.106Z,63.91
2023-03-31T19:01:57.163Z,63.96
2023-03-31T19:04:26.359Z,64.28
2023-03-31T19:06:55.368Z,64.42
2023-03-31T19:09:25.415Z,64.66
2023-03-31T19:11:53.773Z,64.81
2023-03-31T19:14:21.851Z,64.82
2023-03-31T19:16:50.237Z,64.99
2023-03-31T19:19:18.268Z,65.17
2023-03-31T19:21:47.762Z,65.16
2023-03-31T19:24:16.334Z,65.32
2023-03-31T19:26:44.278Z,65.55
2023-03-31T19:29:12.236Z,65.59
2023-03-31T19:31:40.846Z,65.69
2023-03-31T19:34:11.155Z,65.85
2023-03-31T19:36:39.780Z,66.03
2023-03-31T19:39:07.807Z,66.10
2023-03-31T19:41:35.890Z,66.15
2023-03-31T19:44:03.878Z,66.06
2023-03-31T19:46:32.559Z,66.10
2023-03-31T19:49:00.819Z,66.08
2023-03-31T19:51:28.934Z,66.23
2023-03-31T19:53:57.848Z,66.34
2023-03-31T19:56:26.465Z,66.45
2023-03-31T19:58:54.409Z,66.53
2023-03-31T20:01:25.099Z,66.63
2023-03-31T20:03:54.115Z,66.73
2023-03-31T20:06:24.540Z,66.79
2023-03-31T20:08:54.933Z,67.04
2023-03-31T20:11:25.396Z,67.15
2023-03-31T20:13:53.743Z,67.24
2023-03-31T20:16:23.995Z,67.25
2023-03-31T20:18:54.351Z,67.40
2023-03-31T20:21:25.238Z,67.50
2023-03-31T20:23:54.188Z,67.47
2023-03-31T20:26:24.508Z,67.63
2023-03-31T20:28:54.419Z,67.61
2023-03-31T20:31:23.948Z,67.77
2023-03-31T20:33:53.759Z,67.67
2023-03-31T20:36:23.714Z,67.55
2023-03-31T20:38:53.344Z,67.75
2023-03-31T20:41:23.273Z,67.62
2023-03-31T20:43:52.043Z,67.49
2023-03-31T20:46:20.959Z,67.53
2023-03-31T20:48:51.524Z,67.51
2023-03-31T20:51:22.050Z,67.58
2023-03-31T20:53:52.654Z,67.55
2023-03-31T20:56:24.663Z,67.53
2023-03-31T20:58:54.376Z,67.50
2023-03-31T21:01:22.941Z,67.60
2023-03-31T21:03:51.114Z,67.92
2023-03-31T21:06:20.382Z,67.71
2023-03-31T21:09:06.193Z,67.64
2023-03-31T21:11:34.460Z,67.74
2023-03-31T21:14:03.032Z,67.77
2023-03-31T21:16:31.069Z,67.90
2023-03-31T21:18:59.422Z,68.08
2023-03-31T21:21:28.376Z,68.07
2023-03-31T21:23:56.454Z,67.93
2023-03-31T21:26:25.179Z,68.06
2023-03-31T21:28:53.656Z,68.01
2023-03-31T21:31:23.438Z,68.07
2023-03-31T21:33:52.441Z,68.29
2023-03-31T21:36:22.087Z,68.18
2023-03-31T21:38:51.987Z,68.42
2023-03-31T21:41:22.541Z,68.36
2023-03-31T21:43:51.120Z,68.40
2023-03-31T21:46:21.185Z,68.32
2023-03-31T21:48:50.061Z,68.50
2023-03-31T21:51:19.420Z,68.72
2023-03-31T21:53:47.936Z,68.73
2023-03-31T21:56:16.433Z,68.81
2023-03-31T21:58:44.424Z,68.97
2023-03-31T22:01:12.663Z,69.04
2023-03-31T22:03:41.783Z,69.10
2023-03-31T22:06:10.625Z,69.23
2023-03-31T22:08:39.033Z,69.39
2023-03-31T22:11:09.678Z,69.40
2023-03-31T22:13:38.298Z,69.55
2023-03-31T22:16:17.948Z,69.56
2023-03-31T22:18:47.031Z,69.54
2023-03-31T22:21:17.912Z,69.65
2023-03-31T22:23:46.271Z,69.90
2023-03-31T22:26:14.310Z,69.82
2023-03-31T22:28:42.430Z,69.92
2023-03-31T22:31:10.581Z,69.98
2023-03-31T22:33:38.565Z,69.97
2023-03-31T22:36:07.855Z,70.22
2023-03-31T22:38:35.837Z,70.03
2023-03-31T22:41:04.413Z,70.33
2023-03-31T22:43:33.364Z,70.30
2023-03-31T22:46:04.749Z,70.40
2023-03-31T22:48:32.786Z,70.46
2023-03-31T22:51:05.084Z,70.63
2023-03-31T22:53:33.237Z,70.72
2023-03-31T22:56:06.018Z,70.67
2023-03-31T22:58:34.649Z,70.75
2023-03-31T23:01:02.800Z,70.86
2023-03-31T23:03:30.954Z,70.69
2023-03-31T23:06:02.964Z,70.83
2023-03-31T23:08:31.228Z,70.87
2023-03-31T23:11:00.782Z,70.82
2023-03-31T23:13:30.169Z,70.90
2023-03-31T23:16:04.108Z,70.88
2023-03-31T23:18:32.105Z,70.94
2023-03-31T23:21:03.498Z,70.94
2023-03-31T23:23:31.465Z,70.74
2023-03-31T23:26:01.943Z,70.81
2023-03-31T23:28:30.991Z,70.88
2023-03-31T23:30:59.005Z,71.06
2023-03-31T23:33:28.645Z,71.08
2023-03-31T23:36:00.500Z,71.18
2023-03-31T23:38:28.626Z,71.25
2023-03-31T23:40:57.069Z,71.26
2023-03-31T23:43:26.823Z,71.19
2023-03-31T23:45:55.780Z,71.09
2023-03-31T23:48:23.775Z,71.04
2023-03-31T23:50:51.790Z,71.08
2023-03-31T23:53:19.799Z,71.05
2023-03-31T23:55:55.940Z,70.89
2023-03-31T23:58:24.407Z,71.05
